sensor_id;sensor_type;location;lat;lon;timestamp;P1;durP1;ratioP1;P2;durP2;ratioP2
48859;SDS011;34679;51.436;-2.518;2022-07-04T00:00:35;7.15;;;1.92;;
48859;SDS011;34679;51.436;-2.518;2022-07-04T00:03:01;9.40;;;1.90;;
48859;SDS011;34679;51.436;-2.518;2022-07-04T00:05:27;6.03;;;2.03;;
48859;SDS011;34679;51.436;-2.518;2022-07-04T00:07:53;6.78;;;1.85;;
48859;SDS011;34679;51.436;-2.518;2022-07-04T00:10:18;5.65;;;1.85;;
48859;SDS011;34679;51.436;-2.518;2022-07-04T00:12:47;6.70;;;2.00;;
48859;SDS011;34679;51.436;-2.518;2022-07-04T00:15:13;6.45;;;1.90;;
48859;SDS011;34679;51.436;-2.518;2022-07-04T00:17:39;6.57;;;2.65;;
48859;SDS011;34679;51.436;-2.518;2022-07-04T00:20:06;7.97;;;3.20;;
48859;SDS011;34679;51.436;-2.518;2022-07-04T00:22:33;4.97;;;2.35;;
48859;SDS011;34679;51.436;-2.518;2022-07-04T00:24:59;3.33;;;2.00;;
48859;SDS011;34679;51.436;-2.518;2022-07-04T00:27:25;9.20;;;2.45;;
48859;SDS011;34679;51.436;-2.518;2022-07-04T00:29:51;5.45;;;2.00;;
48859;SDS011;34679;51.436;-2.518;2022-07-04T00:32:17;9.02;;;1.88;;
48859;SDS011;34679;51.436;-2.518;2022-07-04T00:34:43;10.77;;;2.25;;
48859;SDS011;34679;51.436;-2.518;2022-07-04T00:37:08;6.80;;;2.40;;
48859;SDS011;34679;51.436;-2.518;2022-07-04T00:39:34;6.90;;;2.20;;
48859;SDS011;34679;51.436;-2.518;2022-07-04T00:42:00;6.95;;;1.80;;
48859;SDS011;34679;51.436;-2.518;2022-07-04T00:44:26;6.05;;;2.40;;
48859;SDS011;34679;51.436;-2.518;2022-07-04T00:46:52;5.18;;;2.25;;
48859;SDS011;34679;51.436;-2.518;2022-07-04T00:49:18;4.90;;;2.03;;
48859;SDS011;34679;51.436;-2.518;2022-07-04T00:51:44;8.15;;;2.13;;
48859;SDS011;34679;51.436;-2.518;2022-07-04T00:54:12;4.53;;;2.90;;
48859;SDS011;34679;51.436;-2.518;2022-07-04T00:56:39;5.70;;;2.40;;
48859;SDS011;34679;51.436;-2.518;2022-07-04T00:59:07;9.23;;;2.67;;
48859;SDS011;34679;51.436;-2.518;2022-07-04T01:01:33;5.00;;;2.10;;
48859;SDS011;34679;51.436;-2.518;2022-07-04T01:03:59;6.93;;;2.70;;
48859;SDS011;34679;51.436;-2.518;2022-07-04T01:06:26;7.20;;;2.72;;
48859;SDS011;34679;51.436;-2.518;2022-07-04T01:08:52;9.40;;;2.75;;
48859;SDS011;34679;51.436;-2.518;2022-07-04T01:11:17;4.80;;;2.20;;
48859;SDS011;34679;51.436;-2.518;2022-07-04T01:13:43;11.05;;;3.72;;
48859;SDS011;34679;51.436;-2.518;2022-07-04T01:16:10;5.40;;;2.17;;
48859;SDS011;34679;51.436;-2.518;2022-07-04T01:18:36;4.25;;;2.35;;
48859;SDS011;34679;51.436;-2.518;2022-07-04T01:21:03;9.02;;;2.83;;
48859;SDS011;34679;51.436;-2.518;2022-07-04T01:23:29;4.80;;;3.30;;
48859;SDS011;34679;51.436;-2.518;2022-07-04T01:25:56;10.07;;;2.70;;
48859;SDS011;34679;51.436;-2.518;2022-07-04T01:28:22;9.23;;;2.70;;
48859;SDS011;34679;51.436;-2.518;2022-07-04T01:30:50;8.82;;;2.58;;
48859;SDS011;34679;51.436;-2.518;2022-07-04T01:33:16;3.83;;;2.30;;
48859;SDS011;34679;51.436;-2.518;2022-07-04T01:35:44;8.38;;;2.50;;
48859;SDS011;34679;51.436;-2.518;2022-07-04T01:38:10;7.78;;;2.78;;
48859;SDS011;34679;51.436;-2.518;2022-07-04T01:40:36;3.83;;;2.20;;
48859;SDS011;34679;51.436;-2.518;2022-07-04T01:43:02;9.38;;;2.38;;
48859;SDS011;34679;51.436;-2.518;2022-07-04T01:45:27;9.73;;;2.60;;
48859;SDS011;34679;51.436;-2.518;2022-07-04T01:47:53;6.60;;;2.00;;
48859;SDS011;34679;51.436;-2.518;2022-07-04T01:50:19;7.65;;;2.05;;
48859;SDS011;34679;51.436;-2.518;2022-07-04T01:52:45;7.53;;;1.95;;
48859;SDS011;34679;51.436;-2.518;2022-07-04T01:55:12;8.25;;;2.17;;
48859;SDS011;34679;51.436;-2.518;2022-07-04T01:57:38;7.07;;;2.60;;
48859;SDS011;34679;51.436;-2.518;2022-07-04T02:00:07;4.32;;;2.05;;
48859;SDS011;34679;51.436;-2.518;2022-07-04T02:02:54;6.30;;;2.17;;
48859;SDS011;34679;51.436;-2.518;2022-07-04T02:05:20;5.72;;;2.30;;
48859;SDS011;34679;51.436;-2.518;2022-07-04T02:07:47;3.90;;;1.75;;
48859;SDS011;34679;51.436;-2.518;2022-07-04T02:10:13;3.22;;;1.60;;
48859;SDS011;34679;51.436;-2.518;2022-07-04T02:12:39;2.97;;;1.63;;
48859;SDS011;34679;51.436;-2.518;2022-07-04T02:15:24;8.40;;;1.77;;
48859;SDS011;34679;51.436;-2.518;2022-07-04T02:17:50;9.18;;;2.13;;
48859;SDS011;34679;51.436;-2.518;2022-07-04T02:20:16;5.70;;;1.60;;
48859;SDS011;34679;51.436;-2.518;2022-07-04T02:22:42;7.03;;;1.60;;
48859;SDS011;34679;51.436;-2.518;2022-07-04T02:25:07;6.82;;;1.60;;
48859;SDS011;34679;51.436;-2.518;2022-07-04T02:27:33;3.15;;;1.55;;
48859;SDS011;34679;51.436;-2.518;2022-07-04T02:29:59;3.72;;;1.40;;
48859;SDS011;34679;51.436;-2.518;2022-07-04T02:32:25;5.80;;;1.42;;
48859;SDS011;34679;51.436;-2.518;2022-07-04T02:34:51;4.70;;;2.17;;
48859;SDS011;34679;51.436;-2.518;2022-07-04T02:37:16;6.22;;;1.90;;
48859;SDS011;34679;51.436;-2.518;2022-07-04T02:39:42;4.05;;;2.03;;
48859;SDS011;34679;51.436;-2.518;2022-07-04T02:42:08;7.13;;;1.88;;
48859;SDS011;34679;51.436;-2.518;2022-07-04T02:44:34;7.88;;;2.00;;
48859;SDS011;34679;51.436;-2.518;2022-07-04T02:47:00;7.72;;;2.00;;
48859;SDS011;34679;51.436;-2.518;2022-07-04T02:49:26;10.15;;;2.05;;
48859;SDS011;34679;51.436;-2.518;2022-07-04T02:51:52;3.35;;;1.95;;
48859;SDS011;34679;51.436;-2.518;2022-07-04T02:54:17;5.80;;;1.73;;
48859;SDS011;34679;51.436;-2.518;2022-07-04T02:56:43;8.50;;;2.20;;
48859;SDS011;34679;51.436;-2.518;2022-07-04T02:59:09;7.15;;;2.08;;
48859;SDS011;34679;51.436;-2.518;2022-07-04T03:01:35;5.25;;;2.25;;
48859;SDS011;34679;51.436;-2.518;2022-07-04T03:04:01;2.58;;;1.70;;
48859;SDS011;34679;51.436;-2.518;2022-07-04T03:06:28;5.85;;;2.03;;
48859;SDS011;34679;51.436;-2.518;2022-07-04T03:08:54;7.95;;;1.88;;
48859;SDS011;34679;51.436;-2.518;2022-07-04T03:11:19;4.20;;;1.88;;
48859;SDS011;34679;51.436;-2.518;2022-07-04T03:13:45;4.85;;;1.58;;
48859;SDS011;34679;51.436;-2.518;2022-07-04T03:16:11;5.32;;;1.80;;
48859;SDS011;34679;51.436;-2.518;2022-07-04T03:18:37;8.93;;;2.05;;
48859;SDS011;34679;51.436;-2.518;2022-07-04T03:21:03;8.25;;;1.55;;
48859;SDS011;34679;51.436;-2.518;2022-07-04T03:23:32;4.20;;;1.90;;
48859;SDS011;34679;51.436;-2.518;2022-07-04T03:25:59;4.20;;;1.60;;
48859;SDS011;34679;51.436;-2.518;2022-07-04T03:28:26;7.07;;;2.10;;
48859;SDS011;34679;51.436;-2.518;2022-07-04T03:30:52;13.23;;;2.10;;
48859;SDS011;34679;51.436;-2.518;2022-07-04T03:33:18;11.02;;;2.55;;
48859;SDS011;34679;51.436;-2.518;2022-07-04T03:35:44;5.00;;;2.25;;
48859;SDS011;34679;51.436;-2.518;2022-07-04T03:38:10;11.07;;;3.10;;
48859;SDS011;34679;51.436;-2.518;2022-07-04T03:40:36;13.70;;;3.45;;
48859;SDS011;34679;51.436;-2.518;2022-07-04T03:43:03;5.43;;;3.65;;
48859;SDS011;34679;51.436;-2.518;2022-07-04T03:45:31;6.65;;;2.50;;
48859;SDS011;34679;51.436;-2.518;2022-07-04T03:47:57;6.75;;;3.10;;
48859;SDS011;34679;51.436;-2.518;2022-07-04T03:50:23;6.90;;;3.28;;
48859;SDS011;34679;51.436;-2.518;2022-07-04T03:52:49;5.47;;;2.85;;
48859;SDS011;34679;51.436;-2.518;2022-07-04T03:55:15;4.45;;;3.00;;
48859;SDS011;34679;51.436;-2.518;2022-07-04T03:57:40;9.05;;;3.22;;
48859;SDS011;34679;51.436;-2.518;2022-07-04T04:00:06;6.90;;;3.25;;
48859;SDS011;34679;51.436;-2.518;2022-07-04T04:02:34;11.52;;;3.40;;
48859;SDS011;34679;51.436;-2.518;2022-07-04T04:05:01;8.02;;;3.13;;
48859;SDS011;34679;51.436;-2.518;2022-07-04T04:07:45;6.38;;;3.15;;
48859;SDS011;34679;51.436;-2.518;2022-07-04T04:10:10;5.78;;;3.22;;
48859;SDS011;34679;51.436;-2.518;2022-07-04T04:12:36;9.15;;;3.42;;
48859;SDS011;34679;51.436;-2.518;2022-07-04T04:15:02;6.47;;;3.20;;
48859;SDS011;34679;51.436;-2.518;2022-07-04T04:17:28;5.35;;;3.13;;
48859;SDS011;34679;51.436;-2.518;2022-07-04T04:19:53;5.18;;;2.70;;
48859;SDS011;34679;51.436;-2.518;2022-07-04T04:22:19;3.05;;;2.60;;
48859;SDS011;34679;51.436;-2.518;2022-07-04T04:24:45;7.47;;;2.90;;
48859;SDS011;34679;51.436;-2.518;2022-07-04T04:27:10;3.38;;;2.67;;
48859;SDS011;34679;51.436;-2.518;2022-07-04T04:29:36;4.30;;;2.40;;
48859;SDS011;34679;51.436;-2.518;2022-07-04T04:32:02;8.80;;;3.05;;
48859;SDS011;34679;51.436;-2.518;2022-07-04T04:34:28;3.15;;;2.08;;
48859;SDS011;34679;51.436;-2.518;2022-07-04T04:36:53;3.13;;;2.00;;
48859;SDS011;34679;51.436;-2.518;2022-07-04T04:39:19;5.88;;;1.83;;
48859;SDS011;34679;51.436;-2.518;2022-07-04T04:41:45;3.22;;;1.80;;
48859;SDS011;34679;51.436;-2.518;2022-07-04T04:44:10;8.23;;;2.40;;
48859;SDS011;34679;51.436;-2.518;2022-07-04T04:46:36;9.48;;;1.77;;
48859;SDS011;34679;51.436;-2.518;2022-07-04T04:49:02;9.68;;;2.25;;
48859;SDS011;34679;51.436;-2.518;2022-07-04T04:51:27;6.95;;;2.42;;
48859;SDS011;34679;51.436;-2.518;2022-07-04T04:53:53;6.40;;;1.88;;
48859;SDS011;34679;51.436;-2.518;2022-07-04T04:56:19;4.72;;;1.80;;
48859;SDS011;34679;51.436;-2.518;2022-07-04T04:58:45;5.22;;;1.67;;
48859;SDS011;34679;51.436;-2.518;2022-07-04T05:01:11;5.50;;;1.90;;
48859;SDS011;34679;51.436;-2.518;2022-07-04T05:03:36;7.47;;;1.80;;
48859;SDS011;34679;51.436;-2.518;2022-07-04T05:06:02;9.05;;;2.55;;
48859;SDS011;34679;51.436;-2.518;2022-07-04T05:08:28;3.38;;;1.83;;
48859;SDS011;34679;51.436;-2.518;2022-07-04T05:10:53;5.25;;;1.80;;
48859;SDS011;34679;51.436;-2.518;2022-07-04T05:13:20;4.68;;;1.95;;
48859;SDS011;34679;51.436;-2.518;2022-07-04T05:15:46;6.43;;;2.15;;
48859;SDS011;34679;51.436;-2.518;2022-07-04T05:18:12;5.38;;;2.30;;
48859;SDS011;34679;51.436;-2.518;2022-07-04T05:20:38;8.43;;;3.00;;
48859;SDS011;34679;51.436;-2.518;2022-07-04T05:23:04;5.82;;;2.45;;
48859;SDS011;34679;51.436;-2.518;2022-07-04T05:25:31;6.22;;;2.67;;
48859;SDS011;34679;51.436;-2.518;2022-07-04T05:27:57;5.75;;;2.78;;
48859;SDS011;34679;51.436;-2.518;2022-07-04T05:30:23;7.55;;;2.83;;
48859;SDS011;34679;51.436;-2.518;2022-07-04T05:32:49;8.68;;;2.83;;
48859;SDS011;34679;51.436;-2.518;2022-07-04T05:35:15;9.77;;;3.13;;
48859;SDS011;34679;51.436;-2.518;2022-07-04T05:37:40;9.50;;;3.60;;
48859;SDS011;34679;51.436;-2.518;2022-07-04T05:40:06;12.85;;;3.97;;
48859;SDS011;34679;51.436;-2.518;2022-07-04T05:42:36;9.10;;;3.67;;
48859;SDS011;34679;51.436;-2.518;2022-07-04T05:45:02;8.30;;;3.53;;
48859;SDS011;34679;51.436;-2.518;2022-07-04T05:47:28;10.45;;;4.60;;
48859;SDS011;34679;51.436;-2.518;2022-07-04T05:49:54;6.68;;;2.95;;
48859;SDS011;34679;51.436;-2.518;2022-07-04T05:52:20;12.05;;;3.13;;
48859;SDS011;34679;51.436;-2.518;2022-07-04T05:54:45;10.20;;;3.20;;
48859;SDS011;34679;51.436;-2.518;2022-07-04T05:57:11;5.45;;;2.70;;
48859;SDS011;34679;51.436;-2.518;2022-07-04T05:59:37;6.50;;;2.10;;
48859;SDS011;34679;51.436;-2.518;2022-07-04T06:02:03;7.93;;;1.98;;
48859;SDS011;34679;51.436;-2.518;2022-07-04T06:04:28;5.95;;;2.40;;
48859;SDS011;34679;51.436;-2.518;2022-07-04T06:06:54;6.90;;;2.30;;
48859;SDS011;34679;51.436;-2.518;2022-07-04T06:09:20;8.40;;;2.47;;
48859;SDS011;34679;51.436;-2.518;2022-07-04T06:11:46;8.65;;;2.45;;
48859;SDS011;34679;51.436;-2.518;2022-07-04T06:14:11;10.45;;;2.70;;
48859;SDS011;34679;51.436;-2.518;2022-07-04T06:16:37;6.45;;;2.90;;
48859;SDS011;34679;51.436;-2.518;2022-07-04T06:19:03;4.38;;;1.95;;
48859;SDS011;34679;51.436;-2.518;2022-07-04T06:21:29;8.68;;;2.30;;
48859;SDS011;34679;51.436;-2.518;2022-07-04T06:23:54;5.35;;;1.85;;
48859;SDS011;34679;51.436;-2.518;2022-07-04T06:26:22;5.10;;;1.70;;
48859;SDS011;34679;51.436;-2.518;2022-07-04T06:28:48;6.20;;;1.60;;
48859;SDS011;34679;51.436;-2.518;2022-07-04T06:31:14;6.65;;;1.33;;
48859;SDS011;34679;51.436;-2.518;2022-07-04T06:33:40;4.30;;;1.13;;
48859;SDS011;34679;51.436;-2.518;2022-07-04T06:36:24;6.60;;;1.50;;
48859;SDS011;34679;51.436;-2.518;2022-07-04T06:38:50;5.90;;;1.17;;
48859;SDS011;34679;51.436;-2.518;2022-07-04T06:41:16;6.22;;;1.30;;
48859;SDS011;34679;51.436;-2.518;2022-07-04T06:43:42;6.63;;;1.27;;
48859;SDS011;34679;51.436;-2.518;2022-07-04T06:46:08;2.63;;;0.70;;
48859;SDS011;34679;51.436;-2.518;2022-07-04T06:48:34;5.13;;;1.15;;
48859;SDS011;34679;51.436;-2.518;2022-07-04T06:51:01;4.30;;;1.20;;
48859;SDS011;34679;51.436;-2.518;2022-07-04T06:53:27;5.28;;;0.75;;
48859;SDS011;34679;51.436;-2.518;2022-07-04T06:55:53;4.47;;;0.80;;
48859;SDS011;34679;51.436;-2.518;2022-07-04T06:58:18;4.25;;;1.20;;
48859;SDS011;34679;51.436;-2.518;2022-07-04T07:00:44;6.30;;;1.55;;
48859;SDS011;34679;51.436;-2.518;2022-07-04T07:03:10;4.50;;;0.70;;
48859;SDS011;34679;51.436;-2.518;2022-07-04T07:05:36;5.13;;;1.10;;
48859;SDS011;34679;51.436;-2.518;2022-07-04T07:08:05;4.00;;;0.88;;
48859;SDS011;34679;51.436;-2.518;2022-07-04T07:10:31;3.78;;;0.70;;
48859;SDS011;34679;51.436;-2.518;2022-07-04T07:13:00;2.33;;;0.60;;
48859;SDS011;34679;51.436;-2.518;2022-07-04T07:15:27;5.43;;;0.70;;
48859;SDS011;34679;51.436;-2.518;2022-07-04T07:17:53;7.13;;;0.85;;
48859;SDS011;34679;51.436;-2.518;2022-07-04T07:20:19;4.18;;;1.15;;
48859;SDS011;34679;51.436;-2.518;2022-07-04T07:22:44;8.65;;;2.28;;
48859;SDS011;34679;51.436;-2.518;2022-07-04T07:25:11;5.25;;;1.48;;
48859;SDS011;34679;51.436;-2.518;2022-07-04T07:27:37;8.32;;;0.70;;
48859;SDS011;34679;51.436;-2.518;2022-07-04T07:30:04;7.45;;;1.20;;
48859;SDS011;34679;51.436;-2.518;2022-07-04T07:32:31;1.58;;;0.63;;
48859;SDS011;34679;51.436;-2.518;2022-07-04T07:34:57;4.78;;;0.82;;
48859;SDS011;34679;51.436;-2.518;2022-07-04T07:37:23;3.88;;;0.70;;
48859;SDS011;34679;51.436;-2.518;2022-07-04T07:39:49;4.63;;;0.70;;
48859;SDS011;34679;51.436;-2.518;2022-07-04T07:42:15;3.30;;;0.85;;
48859;SDS011;34679;51.436;-2.518;2022-07-04T07:44:41;3.95;;;0.68;;
48859;SDS011;34679;51.436;-2.518;2022-07-04T07:47:11;2.97;;;0.75;;
48859;SDS011;34679;51.436;-2.518;2022-07-04T07:49:37;4.47;;;0.57;;
48859;SDS011;34679;51.436;-2.518;2022-07-04T07:52:03;4.18;;;0.80;;
48859;SDS011;34679;51.436;-2.518;2022-07-04T07:54:29;3.63;;;0.80;;
48859;SDS011;34679;51.436;-2.518;2022-07-04T07:59:45;3.35;;;0.63;;
48859;SDS011;34679;51.436;-2.518;2022-07-04T08:02:11;4.13;;;0.52;;
48859;SDS011;34679;51.436;-2.518;2022-07-04T08:04:37;4.00;;;0.70;;
48859;SDS011;34679;51.436;-2.518;2022-07-04T08:07:07;2.83;;;0.82;;
48859;SDS011;34679;51.436;-2.518;2022-07-04T08:09:35;7.43;;;1.50;;
48859;SDS011;34679;51.436;-2.518;2022-07-04T08:12:02;5.28;;;1.05;;
48859;SDS011;34679;51.436;-2.518;2022-07-04T08:14:30;4.15;;;0.70;;
48859;SDS011;34679;51.436;-2.518;2022-07-04T08:16:57;3.95;;;0.80;;
48859;SDS011;34679;51.436;-2.518;2022-07-04T08:19:23;3.90;;;0.63;;
48859;SDS011;34679;51.436;-2.518;2022-07-04T08:21:49;3.13;;;0.60;;
48859;SDS011;34679;51.436;-2.518;2022-07-04T08:24:16;8.63;;;0.88;;
48859;SDS011;34679;51.436;-2.518;2022-07-04T08:26:42;6.80;;;0.60;;
48859;SDS011;34679;51.436;-2.518;2022-07-04T08:29:08;6.13;;;0.82;;
48859;SDS011;34679;51.436;-2.518;2022-07-04T08:31:34;4.53;;;0.68;;
48859;SDS011;34679;51.436;-2.518;2022-07-04T08:33:59;5.78;;;1.35;;
48859;SDS011;34679;51.436;-2.518;2022-07-04T08:36:25;1.77;;;0.57;;
48859;SDS011;34679;51.436;-2.518;2022-07-04T08:38:51;3.85;;;0.82;;
48859;SDS011;34679;51.436;-2.518;2022-07-04T08:41:17;3.60;;;0.85;;
48859;SDS011;34679;51.436;-2.518;2022-07-04T08:43:44;1.10;;;0.50;;
48859;SDS011;34679;51.436;-2.518;2022-07-04T08:46:12;6.07;;;0.90;;
48859;SDS011;34679;51.436;-2.518;2022-07-04T08:48:40;3.95;;;0.80;;
48859;SDS011;34679;51.436;-2.518;2022-07-04T08:51:18;8.18;;;0.90;;
48859;SDS011;34679;51.436;-2.518;2022-07-04T08:53:52;11.18;;;1.50;;
48859;SDS011;34679;51.436;-2.518;2022-07-04T08:56:21;8.18;;;1.05;;
48859;SDS011;34679;51.436;-2.518;2022-07-04T08:59:06;4.13;;;0.90;;
48859;SDS011;34679;51.436;-2.518;2022-07-04T09:01:33;12.75;;;1.77;;
48859;SDS011;34679;51.436;-2.518;2022-07-04T09:03:59;8.52;;;1.55;;
48859;SDS011;34679;51.436;-2.518;2022-07-04T09:06:26;5.43;;;1.00;;
48859;SDS011;34679;51.436;-2.518;2022-07-04T09:08:54;6.55;;;1.33;;
48859;SDS011;34679;51.436;-2.518;2022-07-04T09:11:20;3.28;;;1.10;;
48859;SDS011;34679;51.436;-2.518;2022-07-04T09:13:46;10.57;;;1.17;;
48859;SDS011;34679;51.436;-2.518;2022-07-04T09:16:14;4.10;;;1.20;;
48859;SDS011;34679;51.436;-2.518;2022-07-04T09:18:40;7.00;;;1.25;;
48859;SDS011;34679;51.436;-2.518;2022-07-04T09:21:07;13.18;;;1.15;;
48859;SDS011;34679;51.436;-2.518;2022-07-04T09:23:37;7.68;;;1.30;;
48859;SDS011;34679;51.436;-2.518;2022-07-04T09:28:56;5.60;;;1.10;;
48859;SDS011;34679;51.436;-2.518;2022-07-04T09:31:24;7.25;;;1.20;;
48859;SDS011;34679;51.436;-2.518;2022-07-04T09:33:55;11.35;;;1.95;;
48859;SDS011;34679;51.436;-2.518;2022-07-04T09:36:23;9.23;;;1.20;;
48859;SDS011;34679;51.436;-2.518;2022-07-04T09:39:36;6.53;;;0.80;;
48859;SDS011;34679;51.436;-2.518;2022-07-04T09:42:01;4.38;;;0.95;;
48859;SDS011;34679;51.436;-2.518;2022-07-04T09:44:29;5.95;;;1.15;;
48859;SDS011;34679;51.436;-2.518;2022-07-04T09:47:24;14.02;;;1.48;;
48859;SDS011;34679;51.436;-2.518;2022-07-04T09:52:50;4.75;;;0.95;;
48859;SDS011;34679;51.436;-2.518;2022-07-04T09:55:27;7.05;;;1.13;;
48859;SDS011;34679;51.436;-2.518;2022-07-04T09:57:57;4.85;;;1.23;;
48859;SDS011;34679;51.436;-2.518;2022-07-04T10:03:14;4.57;;;0.95;;
48859;SDS011;34679;51.436;-2.518;2022-07-04T10:05:46;4.47;;;1.10;;
48859;SDS011;34679;51.436;-2.518;2022-07-04T10:08:13;5.03;;;0.80;;
48859;SDS011;34679;51.436;-2.518;2022-07-04T10:10:39;8.27;;;0.75;;
48859;SDS011;34679;51.436;-2.518;2022-07-04T10:13:09;6.22;;;1.23;;
48859;SDS011;34679;51.436;-2.518;2022-07-04T10:15:39;6.05;;;1.25;;
48859;SDS011;34679;51.436;-2.518;2022-07-04T10:18:07;5.55;;;1.40;;
48859;SDS011;34679;51.436;-2.518;2022-07-04T10:20:34;4.22;;;1.13;;
48859;SDS011;34679;51.436;-2.518;2022-07-04T10:23:00;5.20;;;1.20;;
48859;SDS011;34679;51.436;-2.518;2022-07-04T10:25:27;2.47;;;0.80;;
48859;SDS011;34679;51.436;-2.518;2022-07-04T10:27:54;5.82;;;1.23;;
48859;SDS011;34679;51.436;-2.518;2022-07-04T10:32:51;3.40;;;1.10;;
48859;SDS011;34679;51.436;-2.518;2022-07-04T10:35:20;3.92;;;1.08;;
48859;SDS011;34679;51.436;-2.518;2022-07-04T10:38:13;3.25;;;1.30;;
48859;SDS011;34679;51.436;-2.518;2022-07-04T10:40:48;4.28;;;1.40;;
48859;SDS011;34679;51.436;-2.518;2022-07-04T10:48:30;2.85;;;1.10;;
48859;SDS011;34679;51.436;-2.518;2022-07-04T10:50:59;3.90;;;0.80;;
48859;SDS011;34679;51.436;-2.518;2022-07-04T10:53:30;4.07;;;0.70;;
48859;SDS011;34679;51.436;-2.518;2022-07-04T10:56:43;2.83;;;0.60;;
48859;SDS011;34679;51.436;-2.518;2022-07-04T10:58:42;1.85;;;0.82;;
48859;SDS011;34679;51.436;-2.518;2022-07-04T11:01:15;1.77;;;0.80;;
48859;SDS011;34679;51.436;-2.518;2022-07-04T11:03:48;5.32;;;0.80;;
48859;SDS011;34679;51.436;-2.518;2022-07-04T11:14:31;6.28;;;0.85;;
48859;SDS011;34679;51.436;-2.518;2022-07-04T11:17:05;2.85;;;0.90;;
48859;SDS011;34679;51.436;-2.518;2022-07-04T11:19:37;1.95;;;0.68;;
48859;SDS011;34679;51.436;-2.518;2022-07-04T11:22:04;1.67;;;0.80;;
48859;SDS011;34679;51.436;-2.518;2022-07-04T11:24:31;2.17;;;0.68;;
48859;SDS011;34679;51.436;-2.518;2022-07-04T11:26:57;7.30;;;1.08;;
48859;SDS011;34679;51.436;-2.518;2022-07-04T11:29:24;2.55;;;1.13;;
48859;SDS011;34679;51.436;-2.518;2022-07-04T11:31:50;1.25;;;0.60;;
48859;SDS011;34679;51.436;-2.518;2022-07-04T11:34:17;2.00;;;0.60;;
48859;SDS011;34679;51.436;-2.518;2022-07-04T11:36:45;2.85;;;1.15;;
48859;SDS011;34679;51.436;-2.518;2022-07-04T11:39:19;0.60;;;0.60;;
48859;SDS011;34679;51.436;-2.518;2022-07-04T11:41:52;13.02;;;2.45;;
48859;SDS011;34679;51.436;-2.518;2022-07-04T11:44:38;1.35;;;0.90;;
48859;SDS011;34679;51.436;-2.518;2022-07-04T11:47:42;1.55;;;0.60;;
48859;SDS011;34679;51.436;-2.518;2022-07-04T11:50:09;0.80;;;0.50;;
48859;SDS011;34679;51.436;-2.518;2022-07-04T11:55:06;3.33;;;0.90;;
48859;SDS011;34679;51.436;-2.518;2022-07-04T11:57:35;3.58;;;1.10;;
48859;SDS011;34679;51.436;-2.518;2022-07-04T12:02:33;2.30;;;0.65;;
48859;SDS011;34679;51.436;-2.518;2022-07-04T12:04:59;2.38;;;0.80;;
48859;SDS011;34679;51.436;-2.518;2022-07-04T12:07:28;1.25;;;0.60;;
48859;SDS011;34679;51.436;-2.518;2022-07-04T12:09:55;3.95;;;0.88;;
48859;SDS011;34679;51.436;-2.518;2022-07-04T12:12:21;3.20;;;0.80;;
48859;SDS011;34679;51.436;-2.518;2022-07-04T12:17:29;1.55;;;0.70;;
48859;SDS011;34679;51.436;-2.518;2022-07-04T12:22:38;2.47;;;0.70;;
48859;SDS011;34679;51.436;-2.518;2022-07-04T12:25:06;1.60;;;0.68;;
48859;SDS011;34679;51.436;-2.518;2022-07-04T12:27:33;0.95;;;0.70;;
48859;SDS011;34679;51.436;-2.518;2022-07-04T12:30:00;1.88;;;0.80;;
48859;SDS011;34679;51.436;-2.518;2022-07-04T12:32:46;4.57;;;0.73;;
48859;SDS011;34679;51.436;-2.518;2022-07-04T12:38:01;2.38;;;1.15;;
48859;SDS011;34679;51.436;-2.518;2022-07-04T12:40:31;1.42;;;1.30;;
48859;SDS011;34679;51.436;-2.518;2022-07-04T12:42:57;1.45;;;0.95;;
48859;SDS011;34679;51.436;-2.518;2022-07-04T12:45:23;2.92;;;0.98;;
48859;SDS011;34679;51.436;-2.518;2022-07-04T12:47:50;1.00;;;0.75;;
48859;SDS011;34679;51.436;-2.518;2022-07-04T12:50:24;1.00;;;0.63;;
48859;SDS011;34679;51.436;-2.518;2022-07-04T12:52:51;3.33;;;1.15;;
48859;SDS011;34679;51.436;-2.518;2022-07-04T12:55:17;2.08;;;1.02;;
48859;SDS011;34679;51.436;-2.518;2022-07-04T12:57:43;1.35;;;0.90;;
48859;SDS011;34679;51.436;-2.518;2022-07-04T13:00:08;4.63;;;0.90;;
48859;SDS011;34679;51.436;-2.518;2022-07-04T13:02:34;2.45;;;0.65;;
48859;SDS011;34679;51.436;-2.518;2022-07-04T13:05:00;3.17;;;0.70;;
48859;SDS011;34679;51.436;-2.518;2022-07-04T13:07:26;1.58;;;0.80;;
48859;SDS011;34679;51.436;-2.518;2022-07-04T13:09:51;2.45;;;1.00;;
48859;SDS011;34679;51.436;-2.518;2022-07-04T13:12:17;2.75;;;0.70;;
48859;SDS011;34679;51.436;-2.518;2022-07-04T13:14:56;1.25;;;0.60;;
48859;SDS011;34679;51.436;-2.518;2022-07-04T13:17:23;1.98;;;0.50;;
48859;SDS011;34679;51.436;-2.518;2022-07-04T13:19:50;1.17;;;0.60;;
48859;SDS011;34679;51.436;-2.518;2022-07-04T13:22:20;3.50;;;1.15;;
48859;SDS011;34679;51.436;-2.518;2022-07-04T13:24:47;1.88;;;0.90;;
48859;SDS011;34679;51.436;-2.518;2022-07-04T13:27:15;5.10;;;0.80;;
48859;SDS011;34679;51.436;-2.518;2022-07-04T13:29:41;4.97;;;0.70;;
48859;SDS011;34679;51.436;-2.518;2022-07-04T13:32:07;3.25;;;0.80;;
48859;SDS011;34679;51.436;-2.518;2022-07-04T13:34:32;1.10;;;0.60;;
48859;SDS011;34679;51.436;-2.518;2022-07-04T13:36:59;2.42;;;0.60;;
48859;SDS011;34679;51.436;-2.518;2022-07-04T13:39:24;3.22;;;0.60;;
48859;SDS011;34679;51.436;-2.518;2022-07-04T13:41:50;2.50;;;0.70;;
48859;SDS011;34679;51.436;-2.518;2022-07-04T13:44:16;1.30;;;0.65;;
48859;SDS011;34679;51.436;-2.518;2022-07-04T13:46:42;1.70;;;0.73;;
48859;SDS011;34679;51.436;-2.518;2022-07-04T13:49:08;2.15;;;0.70;;
48859;SDS011;34679;51.436;-2.518;2022-07-04T13:51:34;2.75;;;0.90;;
48859;SDS011;34679;51.436;-2.518;2022-07-04T13:54:01;4.47;;;0.93;;
48859;SDS011;34679;51.436;-2.518;2022-07-04T13:56:30;1.35;;;0.75;;
48859;SDS011;34679;51.436;-2.518;2022-07-04T13:58:56;2.45;;;1.00;;
48859;SDS011;34679;51.436;-2.518;2022-07-04T14:01:43;1.88;;;0.90;;
48859;SDS011;34679;51.436;-2.518;2022-07-04T14:04:09;1.77;;;0.93;;
48859;SDS011;34679;51.436;-2.518;2022-07-04T14:06:35;2.00;;;1.20;;
48859;SDS011;34679;51.436;-2.518;2022-07-04T14:09:01;4.47;;;1.25;;
48859;SDS011;34679;51.436;-2.518;2022-07-04T14:11:26;5.55;;;1.20;;
48859;SDS011;34679;51.436;-2.518;2022-07-04T14:13:52;2.85;;;1.10;;
48859;SDS011;34679;51.436;-2.518;2022-07-04T14:16:18;6.10;;;1.65;;
48859;SDS011;34679;51.436;-2.518;2022-07-04T14:18:44;1.52;;;1.20;;
48859;SDS011;34679;51.436;-2.518;2022-07-04T14:21:09;2.78;;;1.30;;
48859;SDS011;34679;51.436;-2.518;2022-07-04T14:23:35;2.13;;;1.92;;
48859;SDS011;34679;51.436;-2.518;2022-07-04T14:26:13;6.03;;;1.80;;
48859;SDS011;34679;51.436;-2.518;2022-07-04T14:28:40;4.78;;;1.60;;
48859;SDS011;34679;51.436;-2.518;2022-07-04T14:31:07;2.78;;;1.67;;
48859;SDS011;34679;51.436;-2.518;2022-07-04T14:33:34;4.22;;;1.80;;
48859;SDS011;34679;51.436;-2.518;2022-07-04T14:36:01;5.53;;;2.03;;
48859;SDS011;34679;51.436;-2.518;2022-07-04T14:38:32;4.75;;;2.10;;
48859;SDS011;34679;51.436;-2.518;2022-07-04T14:40:58;3.55;;;1.75;;
48859;SDS011;34679;51.436;-2.518;2022-07-04T14:43:35;2.55;;;1.60;;
48859;SDS011;34679;51.436;-2.518;2022-07-04T14:46:04;5.03;;;1.50;;
48859;SDS011;34679;51.436;-2.518;2022-07-04T14:48:30;6.50;;;1.30;;
48859;SDS011;34679;51.436;-2.518;2022-07-04T14:50:56;2.53;;;1.33;;
48859;SDS011;34679;51.436;-2.518;2022-07-04T14:53:21;5.65;;;1.08;;
48859;SDS011;34679;51.436;-2.518;2022-07-04T14:55:47;4.93;;;1.40;;
48859;SDS011;34679;51.436;-2.518;2022-07-04T14:58:13;4.00;;;1.35;;
48859;SDS011;34679;51.436;-2.518;2022-07-04T15:00:39;3.13;;;1.52;;
48859;SDS011;34679;51.436;-2.518;2022-07-04T15:03:05;5.43;;;1.70;;
48859;SDS011;34679;51.436;-2.518;2022-07-04T15:05:30;3.10;;;1.75;;
48859;SDS011;34679;51.436;-2.518;2022-07-04T15:07:56;1.92;;;1.80;;
48859;SDS011;34679;51.436;-2.518;2022-07-04T15:10:22;2.80;;;2.08;;
48859;SDS011;34679;51.436;-2.518;2022-07-04T15:12:48;5.45;;;2.80;;
48859;SDS011;34679;51.436;-2.518;2022-07-04T15:15:14;4.10;;;2.20;;